Time;durP1;ratioP1;P1;durP2;ratioP2;P2;SDS_P1;SDS_P2;PMS_P1;PMS_P2;Temp;Humidity;BMP_temperature;BMP_pressure;BME280_temperature;BME280_humidity;BME280_pressure;Samples;Min_cycle;Max_cycle;Signal;HPM_P1;HPM_P2
2021/06/22 00:02:09;;;;;;;;;;;;;;;20.59;80.26;100483.66;6247104;23;1145;-44
2021/06/22 00:04:36;;;;;;;;;;;;;;;20.57;79.79;100479.38;6242607;23;1091;-43
2021/06/22 00:07:05;;;;;;;;;;;;;;;20.62;79.49;100472.56;6246788;23;1141;-44
2021/06/22 00:09:32;;;;;;;;;;;;;;;20.59;79.88;100462.16;6247613;23;1170;-43
2021/06/22 00:12:01;;;;;;;;;;;;;;;20.60;80.84;100474.56;6247216;23;1038;-44
2021/06/22 00:14:33;;;;;;;;;;;;;;;20.60;80.11;100463.81;6247220;23;2038;-44
2021/06/22 00:17:03;;;;;;;;;;;;;;;20.60;80.00;100463.00;6246735;23;1136;-44
2021/06/22 00:19:32;;;;;;;;;;;;;;;20.57;80.03;100474.88;6247097;23;1938;-44
2021/06/22 00:21:58;;;;;;;;;;;;;;;20.57;79.33;100474.88;6249019;23;1088;-43
2021/06/22 00:24:27;;;;;;;;;;;;;;;20.60;79.94;100474.56;6246753;23;1131;-43
2021/06/22 00:26:57;;;;;;;;;;;;;;;20.61;79.69;100481.66;6247358;23;1022;-44
2021/06/22 00:29:27;;;;;;;;;;;;;;;20.63;80.00;100485.03;6247545;23;1072;-44
2021/06/22 00:31:58;;;;;;;;;;;;;;;20.66;79.94;100481.19;6247009;23;1072;-44
2021/06/22 00:34:24;;;;;;;;;;;;;;;20.64;80.17;100449.09;6247450;23;1118;-44
2021/06/22 00:36:54;;;;;;;;;;;;;;;20.69;80.22;100474.66;6247361;23;1037;-43
2021/06/22 00:39:21;;;;;;;;;;;;;;;20.66;80.12;100465.06;6247068;23;1944;-43
2021/06/22 00:41:49;;;;;;;;;;;;;;;20.62;79.63;100439.50;6246963;23;1004;-43
2021/06/22 00:44:16;;;;;;;;;;;;;;;20.56;79.80;100462.41;6247332;23;938;-44
2021/06/22 00:46:42;;;;;;;;;;;;;;;20.59;79.53;100464.84;6247172;23;1065;-44
2021/06/22 00:49:10;;;;;;;;;;;;;;;20.58;79.84;100465.78;6246692;23;1087;-44
2021/06/22 00:51:38;;;;;;;;;;;;;;;20.53;79.63;100454.69;6246688;23;1129;-43
2021/06/22 00:54:05;;;;;;;;;;;;;;;20.53;79.17;100462.72;6246662;23;1420;-43
2021/06/22 00:56:33;;;;;;;;;;;;;;;20.53;79.22;100451.13;6246277;23;1102;-43
2021/06/22 00:59:00;;;;;;;;;;;;;;;20.55;79.21;100452.69;6247202;23;1940;-43
2021/06/22 01:01:29;;;;;;;;;;;;;;;20.51;78.20;100448.59;6246435;23;990;-43
2021/06/22 01:03:58;;;;;;;;;;;;;;;20.53;78.96;100443.94;6246456;23;1154;-44
2021/06/22 01:06:26;;;;;;;;;;;;;;;20.58;78.74;100419.28;6246360;23;1654;-43
2021/06/22 01:08:53;;;;;;;;;;;;;;;20.61;78.27;100435.09;6246491;23;1323;-43
2021/06/22 01:11:20;;;;;;;;;;;;;;;20.62;79.51;100443.03;6247098;23;1092;-43
2021/06/22 01:13:48;;;;;;;;;;;;;;;20.59;78.91;100432.59;6246388;23;945;-44
2021/06/22 01:16:24;;;;;;;;;;;;;;;20.56;78.67;100415.91;6246388;23;1110;-43
2021/06/22 01:18:59;;;;;;;;;;;;;;;20.59;79.15;100434.41;6246130;23;1944;-43
2021/06/22 01:21:29;;;;;;;;;;;;;;;20.62;78.90;100428.75;6246560;23;1048;-44
2021/06/22 01:23:56;;;;;;;;;;;;;;;20.60;78.77;100420.00;6245500;23;1090;-44
2021/06/22 01:26:22;;;;;;;;;;;;;;;20.60;79.08;100410.09;6247073;23;1060;-43
2021/06/22 01:28:49;;;;;;;;;;;;;;;20.62;78.71;100420.69;6246444;23;1007;-44
2021/06/22 01:31:21;;;;;;;;;;;;;;;20.59;77.73;100416.47;6246064;23;1157;-43
2021/06/22 01:33:56;;;;;;;;;;;;;;;20.56;78.40;100414.06;6246652;23;1059;-44
2021/06/22 01:36:27;;;;;;;;;;;;;;;20.54;77.48;100420.59;6246513;23;997;-43
2021/06/22 01:38:57;;;;;;;;;;;;;;;20.49;76.75;100417.50;6246530;23;1947;-44
2021/06/22 01:41:24;;;;;;;;;;;;;;;20.43;77.37;100384.03;6246732;23;989;-43
2021/06/22 01:43:53;;;;;;;;;;;;;;;20.44;76.70;100405.38;6246816;23;1087;-43
2021/06/22 01:46:22;;;;;;;;;;;;;;;20.45;76.35;100414.28;6246201;23;1086;-44
2021/06/22 01:48:49;;;;;;;;;;;;;;;20.49;77.32;100412.13;6246652;23;1002;-43
2021/06/22 01:51:19;;;;;;;;;;;;;;;20.53;77.56;100406.31;6245858;23;1090;-43
2021/06/22 01:53:53;;;;;;;;;;;;;;;20.56;76.99;100403.31;6246883;23;1080;-45
2021/06/22 01:56:24;;;;;;;;;;;;;;;20.49;76.53;100421.03;6247016;23;1076;-43
2021/06/22 01:58:52;;;;;;;;;;;;;;;20.46;76.88;100416.81;6245396;23;1904;-43
2021/06/22 02:01:18;;;;;;;;;;;;;;;20.46;77.14;100416.81;6190829;22;3433;-45
2021/06/22 02:03:45;;;;;;;;;;;;;;;20.42;76.79;100417.28;6179268;23;1144;-44
2021/06/22 02:06:12;;;;;;;;;;;;;;;20.40;76.93;100405.84;6183019;23;1070;-45
2021/06/22 02:08:38;;;;;;;;;;;;;;;20.46;76.86;100416.00;6183869;23;1523;-44
2021/06/22 02:11:05;;;;;;;;;;;;;;;20.40;77.13;100409.38;6183679;23;986;-44
2021/06/22 02:13:33;;;;;;;;;;;;;;;20.44;76.42;100402.69;6183497;23;1091;-44
2021/06/22 02:15:59;;;;;;;;;;;;;;;20.42;75.97;100422.66;6183769;23;1067;-44
2021/06/22 02:18:26;;;;;;;;;;;;;;;20.48;76.76;100387.13;6183989;23;998;-44
2021/06/22 02:20:53;;;;;;;;;;;;;;;20.49;76.79;100418.34;6182995;23;1897;-45
2021/06/22 02:23:19;;;;;;;;;;;;;;;20.43;75.72;100414.47;6183103;23;1082;-44
2021/06/22 02:25:46;;;;;;;;;;;;;;;20.51;76.19;100415.50;6183661;23;996;-43
2021/06/22 02:28:13;;;;;;;;;;;;;;;20.53;75.88;100408.16;6183248;23;1074;-44
2021/06/22 02:30:43;;;;;;;;;;;;;;;20.49;76.29;100434.47;6183301;23;1121;-44
2021/06/22 02:33:10;;;;;;;;;;;;;;;20.48;75.95;100440.84;6183021;23;1064;-44
2021/06/22 02:35:36;;;;;;;;;;;;;;;20.51;76.22;100432.47;6183333;23;1150;-44
2021/06/22 02:38:03;;;;;;;;;;;;;;;20.50;76.58;100430.78;6183620;23;1149;-44
2021/06/22 02:40:29;;;;;;;;;;;;;;;20.50;75.91;100419.22;6183421;23;1924;-45
2021/06/22 02:42:57;;;;;;;;;;;;;;;20.48;75.35;100427.41;6183041;23;993;-44
2021/06/22 02:45:23;;;;;;;;;;;;;;;20.50;75.27;100419.22;6183236;23;1062;-44
2021/06/22 02:47:51;;;;;;;;;;;;;;;20.47;75.46;100431.09;6183581;23;1118;-44
2021/06/22 02:50:19;;;;;;;;;;;;;;;20.49;75.51;100431.78;6183404;23;1098;-44
2021/06/22 02:52:46;;;;;;;;;;;;;;;20.49;75.56;100434.47;6183950;23;2013;-45
2021/06/22 02:55:19;;;;;;;;;;;;;;;20.46;74.74;100411.44;6183433;23;1084;-44
2021/06/22 02:57:45;;;;;;;;;;;;;;;20.45;74.03;100436.63;6183319;23;1087;-45
2021/06/22 03:00:12;;;;;;;;;;;;;;;20.35;74.18;100413.53;6184191;23;1932;-45
2021/06/22 03:02:39;;;;;;;;;;;;;;;20.36;74.97;100415.22;6183212;23;1392;-45
2021/06/22 03:05:07;;;;;;;;;;;;;;;20.36;74.71;100439.38;6183075;23;1232;-44
2021/06/22 03:07:34;;;;;;;;;;;;;;;20.41;75.15;100442.44;6183083;23;1118;-44
2021/06/22 03:10:00;;;;;;;;;;;;;;;20.41;74.71;100431.69;6182309;23;1074;-44
2021/06/22 03:12:27;;;;;;;;;;;;;;;20.41;75.36;100453.19;6184776;23;1141;-44
2021/06/22 03:14:53;;;;;;;;;;;;;;;20.35;74.04;100427.81;6184292;23;1123;-45
2021/06/22 03:17:20;;;;;;;;;;;;;;;20.37;74.56;100433.00;6185091;23;1080;-45
2021/06/22 03:19:46;;;;;;;;;;;;;;;20.35;74.11;100443.94;6184399;23;1935;-44
2021/06/22 03:22:14;;;;;;;;;;;;;;;20.37;75.18;100454.50;6186429;23;1084;-44
2021/06/22 03:24:40;;;;;;;;;;;;;;;20.34;75.27;100450.28;6184582;23;953;-44
2021/06/22 03:27:07;;;;;;;;;;;;;;;20.36;75.34;100455.50;6184834;23;1007;-44
2021/06/22 03:29:33;;;;;;;;;;;;;;;20.35;75.07;100433.19;6184690;23;985;-45
2021/06/22 03:32:00;;;;;;;;;;;;;;;20.38;75.41;100461.56;6184824;23;1018;-44
2021/06/22 03:34:26;;;;;;;;;;;;;;;20.37;75.47;100447.31;6185443;23;1015;-45
2021/06/22 03:36:53;;;;;;;;;;;;;;;20.40;75.60;100464.94;6184792;23;1084;-44
2021/06/22 03:39:21;;;;;;;;;;;;;;;20.45;75.38;100460.81;6184370;23;1897;-46
2021/06/22 03:41:47;;;;;;;;;;;;;;;20.51;75.52;100491.56;6184523;23;1011;-44
2021/06/22 03:44:14;;;;;;;;;;;;;;;20.56;75.65;100473.16;6184304;23;1090;-45
2021/06/22 03:46:42;;;;;;;;;;;;;;;20.62;75.08;100477.94;6185608;23;1026;-44
2021/06/22 03:49:09;;;;;;;;;;;;;;;20.70;75.58;100487.09;6184170;23;1002;-44
2021/06/22 03:51:35;;;;;;;;;;;;;;;20.68;75.63;100478.34;6182658;23;1021;-45
2021/06/22 03:54:02;;;;;;;;;;;;;;;20.70;75.37;100487.09;6183543;23;1102;-44
2021/06/22 03:56:29;;;;;;;;;;;;;;;20.73;75.55;100460.78;6184381;23;1066;-44
2021/06/22 03:58:56;;;;;;;;;;;;;;;20.78;75.01;100473.72;6182052;23;1102;-44
2021/06/22 04:01:22;;;;;;;;;;;;;;;20.75;74.73;100487.47;6183037;23;1942;-44
2021/06/22 04:03:49;;;;;;;;;;;;;;;20.74;74.95;100493.84;6183252;23;1042;-44
2021/06/22 04:06:16;;;;;;;;;;;;;;;20.71;74.50;100492.31;6183635;23;1072;-44
2021/06/22 04:08:42;;;;;;;;;;;;;;;20.73;74.54;100490.31;6185298;23;1118;-45
2021/06/22 04:11:09;;;;;;;;;;;;;;;20.73;75.10;100486.78;6184447;23;1062;-44
2021/06/22 04:13:37;;;;;;;;;;;;;;;20.72;74.71;100498.53;6184216;23;1076;-43
2021/06/22 04:16:04;;;;;;;;;;;;;;;20.70;75.12;100492.47;6185277;23;1056;-44
2021/06/22 04:18:31;;;;;;;;;;;;;;;20.74;74.29;100469.66;6185608;23;1089;-44
2021/06/22 04:20:58;;;;;;;;;;;;;;;20.76;74.84;100506.13;6185346;23;1893;-44
2021/06/22 04:23:24;;;;;;;;;;;;;;;20.78;74.29;100489.84;6184576;23;1165;-44
2021/06/22 04:25:51;;;;;;;;;;;;;;;20.82;74.80;100499.28;6185116;23;994;-44
2021/06/22 04:28:20;;;;;;;;;;;;;;;20.85;74.00;100496.31;6184504;23;1156;-44
2021/06/22 04:30:49;;;;;;;;;;;;;;;20.84;74.94;100508.88;6182953;23;1083;-45
2021/06/22 04:33:15;;;;;;;;;;;;;;;20.91;74.77;100519.88;6183080;23;1144;-44
2021/06/22 04:35:42;;;;;;;;;;;;;;;20.86;74.59;100511.44;6183292;23;1098;-43
2021/06/22 04:38:09;;;;;;;;;;;;;;;20.91;74.00;100494.81;6184004;23;1150;-45
2021/06/22 04:40:36;;;;;;;;;;;;;;;20.96;74.67;100501.44;6183869;23;1900;-45
2021/06/22 04:43:13;;;;;;;;;;;;;;;21.03;74.21;100513.28;6185229;23;1080;-45
2021/06/22 04:45:48;;;;;;;;;;;;;;;21.11;74.46;100525.94;6184955;23;1087;-44
2021/06/22 04:48:20;;;;;;;;;;;;;;;21.09;74.07;100514.50;6185882;23;1088;-44
2021/06/22 04:50:48;;;;;;;;;;;;;;;21.13;74.47;100520.38;6184675;23;1094;-44
2021/06/22 04:53:19;;;;;;;;;;;;;;;21.19;73.94;100509.88;6184575;23;1076;-45
2021/06/22 04:55:46;;;;;;;;;;;;;;;21.20;74.05;100524.16;6183335;23;1078;-44
2021/06/22 04:58:15;;;;;;;;;;;;;;;21.20;73.89;100508.84;6184077;23;1066;-44
2021/06/22 05:00:42;;;;;;;;;;;;;;;21.29;74.12;100533.97;6183166;23;1944;-44
2021/06/22 05:03:08;;;;;;;;;;;;;;;21.28;74.04;100512.63;6183322;23;1436;-44
2021/06/22 05:05:36;;;;;;;;;;;;;;;21.22;74.09;100503.31;6183095;23;1061;-45
2021/06/22 05:08:03;;;;;;;;;;;;;;;21.37;74.69;100504.44;6180923;23;995;-44
2021/06/22 05:10:30;;;;;;;;;;;;;;;21.36;74.69;100502.75;6182747;23;999;-45
2021/06/22 05:12:56;;;;;;;;;;;;;;;21.40;74.21;100509.50;6182744;23;1073;-43
2021/06/22 05:15:23;;;;;;;;;;;;;;;21.45;74.38;100506.38;6182264;23;1131;-44
2021/06/22 05:17:49;;;;;;;;;;;;;;;21.49;74.20;100529.28;6182572;23;1060;-45
2021/06/22 05:20:16;;;;;;;;;;;;;;;21.51;74.73;100510.31;6182015;23;1900;-45
2021/06/22 05:22:43;;;;;;;;;;;;;;;21.49;74.15;100525.72;6183774;23;1081;-44
2021/06/22 05:25:10;;;;;;;;;;;;;;;21.48;74.65;100521.38;6182914;23;1033;-44
2021/06/22 05:27:37;;;;;;;;;;;;;;;21.48;74.76;100527.56;6182531;23;1129;-45
2021/06/22 05:30:04;;;;;;;;;;;;;;;21.49;74.85;100531.97;6182882;23;1080;-44
2021/06/22 05:32:31;;;;;;;;;;;;;;;21.56;74.84;100540.25;6183106;23;1111;-44
2021/06/22 05:34:57;;;;;;;;;;;;;;;21.51;75.25;100537.22;6182994;23;1080;-45
2021/06/22 05:37:24;;;;;;;;;;;;;;;21.49;75.59;100547.25;6182701;23;1106;-44
2021/06/22 05:39:52;;;;;;;;;;;;;;;21.50;75.65;100530.97;6181651;23;1901;-45
2021/06/22 05:42:18;;;;;;;;;;;;;;;21.51;75.49;100524.59;6182712;23;1106;-44
2021/06/22 05:44:45;;;;;;;;;;;;;;;21.52;75.69;100539.72;6182740;23;1070;-45
2021/06/22 05:47:11;;;;;;;;;;;;;;;21.55;75.25;100534.03;6182902;23;1080;-44
2021/06/22 05:49:38;;;;;;;;;;;;;;;21.57;75.62;100556.25;6181132;23;1032;-46
2021/06/22 05:52:04;;;;;;;;;;;;;;;21.59;75.73;100559.63;6182862;23;1101;-44
2021/06/22 05:54:31;;;;;;;;;;;;;;;21.60;76.01;100552.38;6181846;23;1130;-44
2021/06/22 05:56:59;;;;;;;;;;;;;;;21.58;76.10;100549.84;6181397;23;1157;-45
2021/06/22 05:59:25;;;;;;;;;;;;;;;21.63;76.21;100557.47;6183774;23;1088;-44
2021/06/22 06:01:52;;;;;;;;;;;;;;;21.66;75.80;100551.75;6181991;23;1878;-44
2021/06/22 06:04:18;;;;;;;;;;;;;;;21.71;75.63;100554.81;6183952;23;1068;-44
2021/06/22 06:06:45;;;;;;;;;;;;;;;21.74;76.54;100569.81;6183804;23;1066;-45
2021/06/22 06:09:11;;;;;;;;;;;;;;;21.80;76.07;100574.53;6183626;23;1080;-46
2021/06/22 06:11:38;;;;;;;;;;;;;;;21.77;76.23;100540.72;6182506;23;1019;-45
2021/06/22 06:14:06;;;;;;;;;;;;;;;21.77;75.81;100564.13;6183559;23;1153;-44
2021/06/22 06:16:32;;;;;;;;;;;;;;;21.76;75.97;100563.25;6180726;23;1080;-45
2021/06/22 06:18:59;;;;;;;;;;;;;;;21.73;76.42;100544.75;6180802;23;1110;-45
2021/06/22 06:21:25;;;;;;;;;;;;;;;21.72;76.74;100550.28;6181471;23;1901;-46
2021/06/22 06:23:56;;;;;;;;;;;;;;;21.73;76.76;100568.13;6182773;23;1083;-45
2021/06/22 06:26:22;;;;;;;;;;;;;;;21.74;76.39;100559.88;6183995;23;1230;-45
2021/06/22 06:28:51;;;;;;;;;;;;;;;21.75;76.20;100560.75;6183784;23;1085;-45
2021/06/22 06:31:21;;;;;;;;;;;;;;;21.77;76.25;100564.13;6182423;23;1117;-45
2021/06/22 06:33:50;;;;;;;;;;;;;;;21.75;76.84;100571.50;6184026;23;1049;-45
2021/06/22 06:36:20;;;;;;;;;;;;;;;21.83;76.19;100556.22;6182958;23;1097;-45
2021/06/22 06:38:46;;;;;;;;;;;;;;;21.78;76.60;100577.38;6184204;23;1066;-46
2021/06/22 06:41:13;;;;;;;;;;;;;;;21.76;76.97;100536.34;6182359;23;1896;-44
2021/06/22 06:43:39;;;;;;;;;;;;;;;21.79;76.93;100548.66;6183737;23;1102;-45
2021/06/22 06:46:06;;;;;;;;;;;;;;;21.77;76.87;100559.56;6183508;23;981;-44
2021/06/22 06:48:36;;;;;;;;;;;;;;;21.79;77.05;100552.19;6183463;23;1032;-44
2021/06/22 06:51:13;;;;;;;;;;;;;;;21.77;77.24;100548.81;6183435;23;1106;-43
2021/06/22 06:53:42;;;;;;;;;;;;;;;21.76;77.33;100546.25;6184351;23;1012;-45
2021/06/22 06:56:12;;;;;;;;;;;;;;;21.81;77.09;100542.09;6183887;23;1034;-45
2021/06/22 06:58:42;;;;;;;;;;;;;;;21.76;77.00;100525.56;6184014;23;1050;-45
2021/06/22 07:01:10;;;;;;;;;;;;;;;21.76;77.09;100530.94;6183480;23;1934;-44
2021/06/22 07:03:43;;;;;;;;;;;;;;;21.80;76.72;100543.09;6183864;23;1103;-44
2021/06/22 07:06:10;;;;;;;;;;;;;;;21.80;77.24;100526.09;6183457;23;1054;-45
2021/06/22 07:08:40;;;;;;;;;;;;;;;21.80;77.13;100531.47;6184319;23;799;-45
2021/06/22 07:11:10;;;;;;;;;;;;;;;21.79;77.20;100548.66;6183826;23;1069;-44
2021/06/22 07:13:38;;;;;;;;;;;;;;;21.79;77.22;100536.03;6183975;23;1050;-44
2021/06/22 07:16:06;;;;;;;;;;;;;;;21.77;77.36;100535.34;6184032;23;1075;-45
2021/06/22 07:18:36;;;;;;;;;;;;;;;21.78;77.52;100523.56;6183896;23;1030;-44
2021/06/22 07:21:05;;;;;;;;;;;;;;;21.80;77.12;100553.84;6183300;23;1940;-44
2021/06/22 07:23:33;;;;;;;;;;;;;;;21.77;77.18;100548.81;6184039;23;1102;-45
2021/06/22 07:26:00;;;;;;;;;;;;;;;21.79;77.65;100527.13;6183689;23;1068;-44
2021/06/22 07:28:32;;;;;;;;;;;;;;;21.77;77.50;100527.28;6183755;23;1146;-43
2021/06/22 07:31:07;;;;;;;;;;;;;;;21.81;77.55;100549.34;6183380;23;1055;-44
2021/06/22 07:33:37;;;;;;;;;;;;;;;21.79;77.69;100543.25;6183318;23;1080;-44
2021/06/22 07:36:06;;;;;;;;;;;;;;;21.77;78.24;100543.41;6183629;23;1138;-45
2021/06/22 07:38:36;;;;;;;;;;;;;;;21.74;77.57;100538.34;6183334;23;1121;-46
2021/06/22 07:41:03;;;;;;;;;;;;;;;21.79;78.01;100554.88;6182910;23;1930;-44
2021/06/22 07:43:30;;;;;;;;;;;;;;;21.80;77.92;100544.94;6183617;23;1146;-45
2021/06/22 07:45:59;;;;;;;;;;;;;;;21.75;77.99;100529.28;6183571;23;1082;-44
2021/06/22 07:48:29;;;;;;;;;;;;;;;21.81;77.95;100536.72;6179147;23;1219;-44
2021/06/22 07:50:57;;;;;;;;;;;;;;;21.76;78.29;100524.72;6183657;23;1142;-44
2021/06/22 07:53:25;;;;;;;;;;;;;;;21.77;78.01;100521.03;6183193;23;1022;-45
2021/06/22 07:55:53;;;;;;;;;;;;;;;21.76;78.08;100517.50;6183304;23;1069;-45
2021/06/22 07:58:20;;;;;;;;;;;;;;;21.77;77.80;100512.97;6184692;23;1047;-45
2021/06/22 08:00:49;;;;;;;;;;;;;;;21.75;77.83;100512.28;6185139;23;1938;-44
2021/06/22 08:03:16;;;;;;;;;;;;;;;21.79;78.31;100522.56;6184644;23;1390;-45
2021/06/22 08:05:44;;;;;;;;;;;;;;;21.77;77.89;100519.19;6185182;23;1053;-45
2021/06/22 08:08:12;;;;;;;;;;;;;;;21.75;77.72;100515.81;6184604;23;2009;-45
2021/06/22 08:10:40;;;;;;;;;;;;;;;21.75;78.42;100517.69;6184073;23;1045;-44
2021/06/22 08:13:07;;;;;;;;;;;;;;;21.79;78.45;100535.19;6183650;23;1086;-44
2021/06/22 08:15:34;;;;;;;;;;;;;;;21.77;77.87;100535.34;6183823;23;1103;-44
2021/06/22 08:18:02;;;;;;;;;;;;;;;21.80;78.14;100535.00;6184488;23;1122;-44
2021/06/22 08:20:30;;;;;;;;;;;;;;;21.77;77.77;100527.28;6185280;23;1019;-45
2021/06/22 08:22:59;;;;;;;;;;;;;;;21.90;78.33;100537.59;6185600;23;1893;-44
2021/06/22 08:25:30;;;;;;;;;;;;;;;21.88;78.58;100528.00;6184075;23;1106;-44
2021/06/22 08:28:07;;;;;;;;;;;;;;;21.83;78.90;100534.69;6185171;23;1065;-44
2021/06/22 08:33:18;;;;;;;;;;;;;;;21.88;78.78;100536.06;6184973;23;2467;-44
2021/06/22 08:35:45;;;;;;;;;;;;;;;21.91;78.88;100527.69;6185979;23;1100;-44
2021/06/22 08:38:16;;;;;;;;;;;;;;;21.92;79.31;100530.19;6185393;23;1147;-44
2021/06/22 08:40:44;;;;;;;;;;;;;;;21.90;79.18;100537.59;6184720;23;1901;-44
2021/06/22 08:43:26;;;;;;;;;;;;;;;21.91;79.47;100539.28;6184516;23;1082;-45
2021/06/22 08:45:54;;;;;;;;;;;;;;;21.89;79.39;100543.16;6184909;23;1102;-44
2021/06/22 08:48:20;;;;;;;;;;;;;;;21.87;79.51;100531.69;6183832;23;1177;-44
2021/06/22 08:50:47;;;;;;;;;;;;;;;21.83;79.43;100523.94;6183763;23;1094;-44
2021/06/22 08:53:14;;;;;;;;;;;;;;;21.84;79.59;100524.78;6185178;23;993;-45
2021/06/22 08:55:41;;;;;;;;;;;;;;;21.82;79.50;100524.09;6184663;23;1064;-45
2021/06/22 08:58:14;;;;;;;;;;;;;;;21.84;79.28;100532.84;6184962;23;1060;-44
2021/06/22 09:00:44;;;;;;;;;;;;;;;21.83;79.30;100553.53;6184314;23;1110;-44
2021/06/22 09:03:26;;;;;;;;;;;;;;;21.82;79.12;100543.75;6184705;23;1936;-45
2021/06/22 09:05:59;;;;;;;;;;;;;;;21.82;79.39;100540.25;6184301;23;1348;-45
2021/06/22 09:08:27;;;;;;;;;;;;;;;21.83;79.36;100537.38;6184513;23;1936;-44
2021/06/22 09:10:57;;;;;;;;;;;;;;;21.85;78.92;100542.63;6184929;23;1071;-45
2021/06/22 09:13:32;;;;;;;;;;;;;;;21.87;79.25;100547.84;6184810;23;1118;-43
2021/06/22 09:15:59;;;;;;;;;;;;;;;21.94;78.64;100549.72;6184984;23;1155;-44
2021/06/22 09:18:37;;;;;;;;;;;;;;;21.93;78.70;100550.75;6185249;23;1060;-45
2021/06/22 09:21:07;;;;;;;;;;;;;;;21.93;78.79;100558.81;6184475;23;1896;-44
2021/06/22 09:23:37;;;;;;;;;;;;;;;21.88;78.75;100550.38;6185304;23;984;-44
2021/06/22 09:26:11;;;;;;;;;;;;;;;21.87;79.06;100543.31;6185170;23;1072;-44
2021/06/22 09:28:41;;;;;;;;;;;;;;;21.85;79.49;100556.09;6184889;23;1080;-46
2021/06/22 09:31:09;;;;;;;;;;;;;;;21.79;79.09;100544.09;6184474;23;1140;-44
2021/06/22 09:36:24;;;;;;;;;;;;;;;21.83;79.34;100547.31;6184159;23;1709;-45
2021/06/22 09:38:53;;;;;;;;;;;;;;;21.80;79.72;100555.69;6184972;23;1232;-44
2021/06/22 09:41:23;;;;;;;;;;;;;;;21.84;79.65;100575.91;6185274;23;1940;-44
2021/06/22 09:43:52;;;;;;;;;;;;;;;21.80;79.82;100564.63;6185053;23;968;-44
2021/06/22 09:46:31;;;;;;;;;;;;;;;21.77;79.75;100543.41;6183926;23;1158;-44
2021/06/22 09:48:58;;;;;;;;;;;;;;;21.78;79.82;100552.31;6183914;23;984;-44
2021/06/22 09:51:32;;;;;;;;;;;;;;;21.80;79.71;100571.84;6184168;23;1118;-43
2021/06/22 09:54:12;;;;;;;;;;;;;;;21.75;79.97;100555.34;6183902;23;1051;-44
2021/06/22 09:56:38;;;;;;;;;;;;;;;21.74;80.06;100565.25;6183746;23;1090;-44
2021/06/22 09:59:08;;;;;;;;;;;;;;;21.75;79.88;100561.56;6184172;23;990;-44
2021/06/22 10:01:36;;;;;;;;;;;;;;;21.81;79.43;100552.03;6182911;23;1941;-45
2021/06/22 10:04:20;;;;;;;;;;;;;;;21.80;79.30;100558.41;6183348;23;1126;-45
2021/06/22 10:06:55;;;;;;;;;;;;;;;21.80;79.61;100548.47;6184561;23;1030;-44
2021/06/22 10:09:23;;;;;;;;;;;;;;;21.75;79.89;100552.66;6183525;23;949;-45
2021/06/22 10:11:55;;;;;;;;;;;;;;;21.75;80.34;100548.13;6183339;23;1166;-44
2021/06/22 10:14:25;;;;;;;;;;;;;;;21.78;80.03;100561.25;6183443;23;997;-45
2021/06/22 10:16:52;;;;;;;;;;;;;;;21.73;79.73;100547.44;6183821;23;1072;-44
2021/06/22 10:19:20;;;;;;;;;;;;;;;21.75;80.19;100541.91;6183428;23;1111;-44
2021/06/22 10:21:47;;;;;;;;;;;;;;;21.77;79.97;100545.28;6182440;23;1897;-44
2021/06/22 10:24:15;;;;;;;;;;;;;;;21.76;80.46;100522.88;6183016;23;989;-45
2021/06/22 10:26:42;;;;;;;;;;;;;;;21.75;80.78;100531.97;6183417;23;1119;-45
2021/06/22 10:29:08;;;;;;;;;;;;;;;21.75;80.60;100542.72;6183498;23;1075;-46
2021/06/22 10:31:36;;;;;;;;;;;;;;;21.76;80.74;100540.88;6183144;23;1068;-46
2021/06/22 10:34:02;;;;;;;;;;;;;;;21.73;80.11;100531.28;6183016;23;1010;-45
2021/06/22 10:36:30;;;;;;;;;;;;;;;21.73;80.44;100517.81;6182904;23;1229;-44
2021/06/22 10:39:01;;;;;;;;;;;;;;;21.75;80.21;100528.44;6182981;23;1125;-45
2021/06/22 10:41:34;;;;;;;;;;;;;;;21.76;80.31;100524.72;6183064;23;1940;-46
2021/06/22 10:44:00;;;;;;;;;;;;;;;21.76;80.17;100536.34;6182865;23;938;-46
2021/06/22 10:46:27;;;;;;;;;;;;;;;21.74;79.03;100527.56;6183427;23;1080;-45
2021/06/22 10:48:53;;;;;;;;;;;;;;;21.44;74.37;100526.22;6183376;23;1020;-45
2021/06/22 10:51:31;;;;;;;;;;;;;;;21.41;76.84;100500.44;6183746;23;1061;-46
2021/06/22 10:53:57;;;;;;;;;;;;;;;21.37;75.00;100514.38;6182576;23;1073;-46
2021/06/22 10:56:27;;;;;;;;;;;;;;;21.34;75.25;100514.69;6182656;23;987;-45
2021/06/22 10:59:12;;;;;;;;;;;;;;;21.32;74.77;100509.44;6184639;23;1081;-46
2021/06/22 11:01:53;;;;;;;;;;;;;;;21.32;74.91;100517.50;6183508;23;1938;-45
2021/06/22 11:04:24;;;;;;;;;;;;;;;21.29;75.37;100517.84;6158359;23;2629;-45
2021/06/22 11:06:59;;;;;;;;;;;;;;;21.31;75.25;100521.22;6183520;23;1103;-45
2021/06/22 11:09:26;;;;;;;;;;;;;;;21.31;76.20;100528.41;6183794;23;937;-45
2021/06/22 11:12:07;;;;;;;;;;;;;;;21.39;76.15;100507.00;6183994;23;999;-45
2021/06/22 11:14:48;;;;;;;;;;;;;;;21.49;76.19;100504.19;6183716;23;1243;-46
2021/06/22 11:17:38;;;;;;;;;;;;;;;21.56;76.09;100507.97;6183872;23;1824;-45
2021/06/22 11:20:07;;;;;;;;;;;;;;;21.58;76.50;100497.88;6184351;23;2234;-46
2021/06/22 11:22:48;;;;;;;;;;;;;;;21.58;76.71;100506.78;6184795;23;1948;-45
2021/06/22 11:25:15;;;;;;;;;;;;;;;21.60;77.25;100507.47;6184812;23;1497;-45
2021/06/22 11:27:57;;;;;;;;;;;;;;;21.60;77.30;100498.56;6184919;23;1134;-45
2021/06/22 11:30:38;;;;;;;;;;;;;;;21.58;77.54;100497.88;6184487;23;1687;-45
2021/06/22 11:33:19;;;;;;;;;;;;;;;21.58;78.28;100479.03;6186637;23;1543;-45
2021/06/22 11:35:47;;;;;;;;;;;;;;;21.56;78.02;100484.56;6187022;23;1383;-45
2021/06/22 11:38:14;;;;;;;;;;;;;;;21.57;78.67;100480.06;6188046;23;1083;-45
2021/06/22 11:40:55;;;;;;;;;;;;;;;21.55;78.61;100484.75;6187042;23;998;-46
2021/06/22 11:43:22;;;;;;;;;;;;;;;21.53;78.19;100478.69;6187108;23;1959;-45
2021/06/22 11:45:48;;;;;;;;;;;;;;;21.56;78.41;100497.19;6186756;23;1073;-45
2021/06/22 11:48:15;;;;;;;;;;;;;;;21.53;78.66;100473.31;6186487;23;995;-45
2021/06/22 11:50:49;;;;;;;;;;;;;;;21.54;78.93;100478.50;6186430;23;1001;-45
2021/06/22 11:53:16;;;;;;;;;;;;;;;21.53;79.28;100473.31;6187053;23;999;-46
2021/06/22 11:55:44;;;;;;;;;;;;;;;21.53;79.05;100471.47;6186601;23;1011;-45
2021/06/22 11:58:16;;;;;;;;;;;;;;;21.52;79.18;100471.63;6186801;23;1095;-45
2021/06/22 12:00:42;;;;;;;;;;;;;;;21.53;79.10;100459.88;6186179;23;1063;-45
2021/06/22 12:03:09;;;;;;;;;;;;;;;21.54;79.13;100472.31;6185828;23;1944;-45
2021/06/22 12:05:36;;;;;;;;;;;;;;;21.54;78.89;100464.22;6186032;23;1068;-45
2021/06/22 12:08:05;;;;;;;;;;;;;;;21.52;79.23;100466.22;6186157;23;1054;-45
2021/06/22 12:10:42;;;;;;;;;;;;;;;21.54;78.96;100461.53;6186309;23;1057;-45
2021/06/22 12:13:08;;;;;;;;;;;;;;;21.54;78.78;100467.75;6186507;23;1135;-45
2021/06/22 12:15:36;;;;;;;;;;;;;;;21.52;79.44;100458.16;6186857;23;1080;-45
2021/06/22 12:18:03;;;;;;;;;;;;;;;21.52;79.09;100458.16;6187094;23;1064;-45
2021/06/22 12:20:30;;;;;;;;;;;;;;;21.52;79.12;100453.63;6186498;23;1115;-45
2021/06/22 12:23:06;;;;;;;;;;;;;;;21.53;78.67;100460.69;6187200;23;1893;-45
2021/06/22 12:25:37;;;;;;;;;;;;;;;21.54;79.56;100456.16;6186726;23;1072;-46
2021/06/22 12:28:04;;;;;;;;;;;;;;;21.52;78.95;100455.47;6186243;23;1312;-44
2021/06/22 12:30:31;;;;;;;;;;;;;;;21.52;79.54;100458.16;6186208;23;1142;-45
2021/06/22 12:32:58;;;;;;;;;;;;;;;21.52;79.39;100458.16;6186749;23;1080;-45
2021/06/22 12:35:25;;;;;;;;;;;;;;;21.52;79.39;100455.47;6186155;23;2034;-45
2021/06/22 12:37:52;;;;;;;;;;;;;;;21.52;79.64;100467.06;6187417;23;1088;-45
2021/06/22 12:40:23;;;;;;;;;;;;;;;21.50;78.95;100444.03;6186231;23;1106;-45
2021/06/22 12:42:49;;;;;;;;;;;;;;;21.49;79.15;100448.56;6186087;23;1904;-45
2021/06/22 12:45:16;;;;;;;;;;;;;;;21.54;79.67;100446.22;6186207;23;1102;-45
2021/06/22 12:47:52;;;;;;;;;;;;;;;21.51;79.53;100453.81;6186098;23;1102;-45
2021/06/22 12:50:20;;;;;;;;;;;;;;;21.51;79.17;100441.19;6186539;23;1060;-45
2021/06/22 12:52:47;;;;;;;;;;;;;;;21.50;79.50;100452.94;6187224;23;1124;-45
2021/06/22 12:55:34;;;;;;;;;;;;;;;21.50;79.37;100438.66;6186260;23;1122;-45
2021/06/22 12:58:02;;;;;;;;;;;;;;;21.53;79.43;100454.50;6185871;23;2515;-45
2021/06/22 13:00:35;;;;;;;;;;;;;;;21.55;78.88;100442.56;6186074;23;1114;-45
2021/06/22 13:03:06;;;;;;;;;;;;;;;21.52;79.65;100436.63;6185739;23;2020;-45